Luba, Equatorial Guinea
Current Conditions -  °F | °C
As of 10:00 PM on Saturday 20 Dec 2014 (Local Time) from FKKD Reporting Station
Few Clouds Few Clouds  
Wind Chill: 81°   Ceiling: Unl
Heat Index: 87°   Visibility: 4mi
Dew Point: 77°   Wind: 0mph
Humidity: 89%   Direction: NA
Pressure: 29.88"   Gusts: NA
Location:  3.46°N, 8.55°E
Report Text: FKKD 202100Z 00000KT 7000 FEW016 FEW020CB 27/25 Q1012 NOSIG
Loading
Personal Weather Stations






























Interactive Weather Map New forecast layout! Learn more

10-Day Weather Forecast

Advertisements
Track Severe Weather on mobile